createdAt,value
2022-11-24T00:02:18.628Z,73.69
2022-11-24T00:04:45.310Z,73.97
2022-11-24T00:07:11.899Z,73.87
2022-11-24T00:09:38.482Z,73.78
2022-11-24T00:12:05.016Z,73.82
2022-11-24T00:14:31.982Z,73.80
2022-11-24T00:16:58.796Z,73.86
2022-11-24T00:19:25.571Z,74.14
2022-11-24T00:21:52.178Z,73.89
2022-11-24T00:24:18.751Z,74.02
2022-11-24T00:26:45.260Z,73.95
2022-11-24T00:29:12.146Z,74.00
2022-11-24T00:31:40.944Z,73.93
2022-11-24T00:34:11.131Z,74.06
2022-11-24T00:36:38.677Z,74.26
2022-11-24T00:39:07.471Z,73.93
2022-11-24T00:41:34.537Z,74.14
2022-11-24T00:44:01.212Z,74.05
2022-11-24T00:46:28.252Z,74.34
2022-11-24T00:48:55.662Z,74.21
2022-11-24T00:51:26.430Z,74.27
2022-11-24T00:53:53.319Z,74.47
2022-11-24T00:56:19.837Z,74.29
2022-11-24T00:58:46.397Z,74.41
2022-11-24T01:01:19.192Z,74.01
2022-11-24T01:03:47.328Z,74.23
2022-11-24T01:06:19.905Z,74.40
2022-11-24T01:08:47.287Z,74.44
2022-11-24T01:11:20.708Z,74.40
2022-11-24T01:13:52.122Z,74.33
2022-11-24T01:16:26.806Z,74.40
2022-11-24T01:18:54.118Z,74.15
2022-11-24T01:21:21.398Z,74.28
2022-11-24T01:23:48.003Z,74.47
2022-11-24T01:26:19.913Z,74.59
2022-11-24T01:28:47.835Z,74.62
2022-11-24T01:31:15.672Z,74.37
2022-11-24T01:33:42.501Z,74.68
2022-11-24T01:36:09.142Z,74.45
2022-11-24T01:38:35.695Z,74.24
2022-11-24T01:41:08.395Z,74.33
2022-11-24T01:43:38.500Z,74.31
2022-11-24T01:46:26.905Z,74.42
2022-11-24T01:49:03.184Z,74.29
2022-11-24T01:51:33.588Z,74.28
2022-11-24T01:54:16.422Z,74.33
2022-11-24T01:56:47.262Z,74.40
2022-11-24T01:59:15.767Z,74.32
2022-11-24T02:01:43.141Z,74.35
2022-11-24T02:04:16.020Z,74.60
2022-11-24T02:06:45.174Z,74.45
2022-11-24T02:09:19.978Z,74.53
2022-11-24T02:11:47.462Z,74.40
2022-11-24T02:14:18.004Z,74.37
2022-11-24T02:16:49.198Z,74.51
2022-11-24T02:19:48.249Z,74.43
2022-11-24T02:22:21.564Z,74.29
2022-11-24T02:24:55.034Z,74.47
2022-11-24T02:27:21.575Z,74.74
2022-11-24T02:29:49.285Z,74.51
2022-11-24T02:32:16.338Z,74.72
2022-11-24T02:34:42.955Z,74.53
2022-11-24T02:37:09.475Z,74.45
2022-11-24T02:39:36.174Z,74.55
2022-11-24T02:42:12.960Z,74.59
2022-11-24T02:44:45.269Z,74.72
2022-11-24T02:47:13.549Z,74.38
2022-11-24T02:49:40.705Z,74.41
2022-11-24T02:52:07.552Z,74.35
2022-11-24T02:54:34.357Z,74.74
2022-11-24T02:57:01.125Z,74.45
2022-11-24T02:59:27.782Z,74.18
2022-11-24T03:01:54.429Z,74.24
2022-11-24T03:04:21.036Z,74.31
2022-11-24T03:06:47.566Z,74.40
2022-11-24T03:09:14.067Z,74.52
2022-11-24T03:11:40.777Z,74.26
2022-11-24T03:14:08.133Z,74.26
2022-11-24T03:16:34.759Z,74.33
2022-11-24T03:19:01.701Z,74.02
2022-11-24T03:21:28.264Z,74.12
2022-11-24T03:23:54.929Z,74.28
2022-11-24T03:26:23.237Z,74.35
2022-11-24T03:28:49.887Z,73.96
2022-11-24T03:31:16.627Z,74.31
2022-11-24T03:33:43.269Z,74.13
2022-11-24T03:36:10.033Z,74.23
2022-11-24T03:38:36.742Z,73.98
2022-11-24T03:41:03.687Z,74.32
2022-11-24T03:43:30.389Z,74.26
2022-11-24T03:45:57.025Z,74.10
2022-11-24T03:48:23.739Z,74.12
2022-11-24T03:50:58.852Z,74.05
2022-11-24T03:57:43.563Z,74.21
2022-11-24T04:00:11.252Z,74.08
2022-11-24T04:02:38.211Z,74.32
2022-11-24T04:05:05.892Z,74.17
2022-11-24T04:07:32.402Z,74.49
2022-11-24T04:09:59.028Z,74.34
2022-11-24T04:12:43.934Z,74.75
2022-11-24T04:15:16.343Z,74.25
2022-11-24T04:17:43.901Z,74.54
2022-11-24T04:20:12.389Z,74.60
2022-11-24T04:22:39.129Z,74.70
2022-11-24T04:25:06.868Z,74.69
2022-11-24T04:27:34.333Z,74.77
2022-11-24T04:30:00.855Z,74.62
2022-11-24T04:32:27.514Z,74.69
2022-11-24T04:34:54.075Z,74.58
2022-11-24T04:37:20.649Z,74.55
2022-11-24T04:39:47.212Z,74.54
2022-11-24T04:42:13.795Z,74.56
2022-11-24T04:44:40.361Z,74.85
2022-11-24T04:47:07.121Z,74.78
2022-11-24T04:49:33.687Z,75.04
2022-11-24T04:52:00.212Z,74.68
2022-11-24T04:54:26.765Z,74.90
2022-11-24T04:56:53.386Z,74.63
2022-11-24T04:59:20.250Z,75.01
2022-11-24T05:01:47.445Z,74.97
2022-11-24T05:04:15.766Z,74.67
2022-11-24T05:06:42.677Z,74.73
2022-11-24T05:09:16.622Z,74.84
2022-11-24T05:11:43.688Z,74.62
2022-11-24T05:14:10.278Z,74.85
2022-11-24T05:16:37.747Z,74.95
2022-11-24T05:19:04.661Z,74.79
2022-11-24T05:21:31.307Z,74.84
2022-11-24T05:23:57.903Z,74.66
2022-11-24T05:26:24.542Z,74.96
2022-11-24T05:28:51.136Z,74.88
2022-11-24T05:31:17.658Z,74.57
2022-11-24T05:33:44.317Z,74.77
2022-11-24T05:36:31.098Z,74.77
2022-11-24T05:38:57.642Z,74.88
2022-11-24T05:41:24.252Z,74.62
2022-11-24T05:43:50.863Z,74.39
2022-11-24T05:46:17.617Z,74.75
2022-11-24T05:48:44.291Z,74.51
2022-11-24T05:51:10.824Z,74.60
2022-11-24T05:53:37.443Z,74.39
2022-11-24T05:56:04.761Z,74.51
2022-11-24T05:58:31.257Z,74.39
2022-11-24T06:00:57.753Z,74.31
2022-11-24T06:03:24.220Z,74.55
2022-11-24T06:05:50.793Z,74.57
2022-11-24T06:08:17.301Z,74.70
2022-11-24T06:10:43.826Z,74.70
2022-11-24T06:13:10.450Z,74.74
2022-11-24T06:15:37.761Z,74.66
2022-11-24T06:18:04.548Z,74.55
2022-11-24T06:20:32.919Z,74.90
2022-11-24T06:23:01.098Z,74.67
2022-11-24T06:25:28.507Z,74.71
2022-11-24T06:27:55.180Z,74.66
2022-11-24T06:30:21.882Z,75.08
2022-11-24T06:32:50.058Z,75.01
2022-11-24T06:35:17.156Z,74.72
2022-11-24T06:37:43.728Z,74.68
2022-11-24T06:40:10.528Z,74.91
2022-11-24T06:42:37.563Z,74.73
2022-11-24T06:45:08.721Z,74.57
2022-11-24T06:47:36.158Z,74.96
2022-11-24T06:50:02.806Z,75.11
2022-11-24T06:52:29.346Z,74.91
2022-11-24T06:54:57.186Z,74.84
2022-11-24T06:57:23.681Z,74.67
2022-11-24T06:59:50.256Z,74.72
2022-11-24T07:02:16.732Z,74.15
2022-11-24T07:04:43.322Z,74.41
2022-11-24T07:07:09.959Z,74.10
2022-11-24T07:09:36.722Z,74.57
2022-11-24T07:12:03.489Z,74.35
2022-11-24T07:14:29.979Z,74.19
2022-11-24T07:16:56.550Z,74.36
2022-11-24T07:19:25.001Z,74.38
2022-11-24T07:21:51.896Z,74.54
2022-11-24T07:24:18.905Z,74.75
2022-11-24T07:26:45.551Z,74.78
2022-11-24T07:29:12.201Z,75.17
2022-11-24T07:31:38.755Z,75.09
2022-11-24T07:34:05.333Z,75.15
2022-11-24T07:36:31.816Z,75.31
2022-11-24T07:38:58.539Z,75.40
2022-11-24T07:41:25.548Z,75.55
2022-11-24T07:43:52.185Z,75.68
2022-11-24T07:46:19.826Z,75.53
2022-11-24T07:48:47.184Z,75.70
2022-11-24T07:51:14.160Z,75.41
2022-11-24T07:53:41.098Z,75.71
2022-11-24T07:56:07.944Z,75.75
2022-11-24T07:58:37.063Z,75.30
2022-11-24T08:01:17.372Z,75.63
2022-11-24T08:03:45.604Z,75.55
2022-11-24T08:06:38.737Z,75.62
2022-11-24T08:09:01.342Z,75.51
2022-11-24T08:11:28.512Z,75.85
2022-11-24T08:13:55.058Z,76.12
2022-11-24T08:16:21.761Z,75.97
2022-11-24T08:18:55.976Z,75.78
2022-11-24T08:21:23.735Z,75.99
2022-11-24T08:23:54.656Z,76.18
2022-11-24T08:26:21.296Z,76.22
2022-11-24T08:28:48.102Z,76.20
2022-11-24T08:31:18.754Z,76.12
2022-11-24T08:33:46.615Z,76.07
2022-11-24T08:36:18.023Z,76.38
2022-11-24T08:38:45.558Z,76.50
2022-11-24T08:41:14.841Z,76.64
2022-11-24T08:43:42.181Z,76.44
2022-11-24T08:46:16.970Z,76.48
2022-11-24T08:48:47.386Z,76.56
2022-11-24T08:51:22.844Z,76.61
2022-11-24T08:53:49.459Z,76.95
2022-11-24T08:56:16.027Z,77.25
2022-11-24T08:58:42.760Z,77.38
2022-11-24T09:01:15.164Z,77.60
2022-11-24T09:03:48.595Z,77.65
2022-11-24T09:06:23.373Z,77.53
2022-11-24T09:08:51.216Z,77.84
2022-11-24T09:11:18.320Z,77.75
2022-11-24T09:13:45.352Z,77.62
2022-11-24T09:16:18.292Z,77.48
2022-11-24T09:18:45.647Z,77.73
2022-11-24T09:21:18.195Z,77.68
2022-11-24T09:23:46.206Z,77.56
2022-11-24T09:26:16.358Z,77.80
2022-11-24T09:28:43.070Z,77.63
2022-11-24T09:31:12.473Z,77.79
2022-11-24T09:33:40.032Z,77.69
2022-11-24T09:36:07.651Z,78.05
2022-11-24T09:38:34.484Z,77.67
2022-11-24T09:41:23.555Z,77.96
2022-11-24T09:44:14.991Z,77.78
2022-11-24T09:47:13.048Z,78.07
2022-11-24T09:49:53.177Z,77.93
2022-11-24T09:52:35.680Z,77.85
2022-11-24T09:55:05.413Z,78.09
2022-11-24T09:57:37.794Z,77.84
2022-11-24T10:00:12.364Z,77.85
2022-11-24T10:02:39.308Z,77.84
2022-11-24T10:05:06.893Z,77.93
2022-11-24T10:07:42.471Z,77.56
2022-11-24T10:10:22.884Z,77.64
2022-11-24T10:13:03.232Z,77.90
2022-11-24T10:15:47.944Z,77.85
2022-11-24T10:18:21.525Z,77.54
2022-11-24T10:21:21.810Z,77.61
2022-11-24T10:24:25.793Z,77.69
2022-11-24T10:27:09.635Z,77.72
2022-11-24T10:29:40.408Z,77.79
2022-11-24T10:32:15.114Z,77.85
2022-11-24T10:34:45.079Z,78.06
2022-11-24T10:37:11.559Z,77.79
2022-11-24T10:39:50.478Z,77.72
2022-11-24T10:42:36.930Z,78.10
2022-11-24T10:45:11.162Z,77.78
2022-11-24T10:47:38.683Z,78.29
2022-11-24T10:50:22.915Z,77.75
2022-11-24T10:52:58.144Z,77.73
2022-11-24T10:55:24.820Z,77.81
2022-11-24T10:57:51.467Z,77.73
2022-11-24T11:00:21.028Z,77.87
2022-11-24T11:02:49.052Z,77.94
2022-11-24T11:05:27.760Z,77.91
2022-11-24T11:08:10.575Z,77.91
2022-11-24T11:10:37.237Z,78.17
2022-11-24T11:13:29.421Z,77.79
2022-11-24T11:15:58.391Z,77.84
2022-11-24T11:18:32.832Z,77.56
2022-11-24T11:21:02.459Z,77.76
2022-11-24T11:23:32.577Z,77.80
2022-11-24T11:26:20.103Z,77.91
2022-11-24T11:34:48.014Z,77.64
2022-11-24T11:37:15.808Z,77.86
2022-11-24T11:39:48.902Z,77.68
2022-11-24T11:45:27.834Z,77.92
2022-11-24T11:48:16.434Z,77.61
2022-11-24T11:51:22.400Z,77.71
2022-11-24T11:54:22.809Z,77.88
2022-11-24T11:57:14.480Z,77.77
2022-11-24T12:00:02.642Z,77.93
2022-11-24T12:02:51.703Z,78.01
2022-11-24T12:05:29.303Z,77.80
2022-11-24T12:08:20.719Z,77.79
2022-11-24T12:10:59.663Z,77.65
2022-11-24T12:13:41.630Z,77.70
2022-11-24T12:16:27.717Z,77.52
2022-11-24T12:19:37.668Z,77.59
2022-11-24T12:22:35.199Z,77.57
2022-11-24T12:25:20.897Z,77.51
2022-11-24T12:28:13.878Z,77.82
2022-11-24T12:30:51.142Z,77.59
2022-11-24T12:33:46.247Z,77.62
2022-11-24T12:36:47.700Z,77.36
2022-11-24T12:39:20.063Z,77.60
2022-11-24T12:42:08.606Z,77.73
2022-11-24T12:45:13.122Z,77.75
2022-11-24T12:47:57.055Z,77.62
2022-11-24T12:50:29.142Z,77.64
2022-11-24T12:53:13.897Z,77.47
2022-11-24T12:55:42.075Z,77.63
2022-11-24T12:58:21.455Z,77.53
2022-11-24T13:01:03.220Z,77.48
2022-11-24T13:03:56.303Z,77.17
2022-11-24T13:06:36.284Z,77.57
2022-11-24T13:09:10.982Z,77.52
2022-11-24T13:11:39.091Z,77.43
2022-11-24T13:14:07.607Z,77.41
2022-11-24T13:16:37.177Z,77.23
2022-11-24T13:19:13.912Z,77.27
2022-11-24T13:22:00.996Z,77.26
2022-11-24T13:24:30.840Z,77.33
2022-11-24T13:27:27.089Z,77.26
2022-11-24T13:29:54.556Z,77.36
2022-11-24T13:32:21.200Z,77.32
2022-11-24T13:34:49.736Z,77.32
2022-11-24T13:37:31.293Z,77.35
2022-11-24T13:40:11.370Z,77.34
2022-11-24T13:42:56.579Z,77.15
2022-11-24T13:45:49.593Z,77.35
2022-11-24T13:48:19.279Z,77.28
2022-11-24T13:50:53.226Z,77.45
2022-11-24T13:53:48.109Z,77.24
2022-11-24T13:56:17.543Z,77.32
2022-11-24T13:58:47.716Z,77.27
2022-11-24T14:01:26.802Z,77.22
2022-11-24T14:04:31.131Z,77.38
2022-11-24T14:07:07.402Z,77.34
2022-11-24T14:09:43.528Z,77.19
2022-11-24T14:12:10.195Z,77.26
2022-11-24T14:14:37.143Z,77.13
2022-11-24T14:17:12.953Z,77.29
2022-11-24T14:19:40.087Z,77.06
2022-11-24T14:22:14.953Z,77.17
2022-11-24T14:24:45.228Z,76.96
2022-11-24T14:27:17.534Z,76.88
2022-11-24T14:29:54.206Z,77.08
2022-11-24T14:32:21.990Z,77.02
2022-11-24T14:34:48.653Z,77.03
2022-11-24T14:37:15.255Z,77.10
2022-11-24T14:39:42.751Z,76.98
2022-11-24T14:42:21.425Z,76.75
2022-11-24T14:44:56.411Z,77.02
2022-11-24T14:47:38.593Z,76.77
2022-11-24T14:50:12.195Z,76.96
2022-11-24T14:52:46.365Z,77.02
2022-11-24T14:55:24.622Z,77.22
2022-11-24T14:57:51.176Z,76.91
2022-11-24T15:00:27.024Z,77.06
2022-11-24T15:02:56.102Z,77.12
2022-11-24T15:05:25.517Z,77.03
2022-11-24T15:08:02.535Z,77.20
2022-11-24T15:10:34.877Z,76.91
2022-11-24T15:13:16.243Z,76.94
2022-11-24T15:15:48.214Z,76.91
2022-11-24T15:18:33.097Z,76.80
2022-11-24T15:20:59.779Z,76.86
2022-11-24T15:23:28.963Z,76.87
2022-11-24T15:25:57.476Z,76.91
2022-11-24T15:28:25.984Z,76.78
2022-11-24T15:31:06.937Z,76.77
2022-11-24T15:33:33.542Z,76.81
2022-11-24T15:36:00.492Z,76.71
2022-11-24T15:38:27.352Z,76.65
2022-11-24T15:40:55.314Z,76.85
2022-11-24T15:43:28.163Z,76.60
2022-11-24T15:45:54.906Z,76.76
2022-11-24T15:48:22.000Z,76.62
2022-11-24T15:50:49.675Z,76.61
2022-11-24T15:53:21.397Z,76.59
2022-11-24T15:55:48.763Z,77.03
2022-11-24T15:58:15.401Z,77.08
2022-11-24T16:00:43.577Z,76.94
2022-11-24T16:03:44.648Z,76.90
2022-11-24T16:05:57.522Z,77.02
2022-11-24T16:08:24.169Z,77.00
2022-11-24T16:10:51.301Z,76.82
2022-11-24T16:13:17.858Z,76.68
2022-11-24T16:15:46.140Z,76.50
2022-11-24T16:18:15.060Z,76.56
2022-11-24T16:20:41.652Z,76.35
2022-11-24T16:23:08.441Z,76.31
2022-11-24T16:25:35.122Z,75.95
2022-11-24T16:28:01.640Z,75.94
2022-11-24T16:30:28.188Z,75.71
2022-11-24T16:32:54.879Z,75.46
2022-11-24T16:35:21.474Z,75.56
2022-11-24T16:37:48.948Z,75.36
2022-11-24T16:40:15.547Z,75.35
2022-11-24T16:42:42.077Z,75.24
2022-11-24T16:45:12.766Z,75.17
2022-11-24T16:47:41.112Z,75.16
2022-11-24T16:50:09.154Z,75.19
2022-11-24T16:52:35.771Z,75.08
2022-11-24T16:55:02.742Z,75.13
2022-11-24T16:57:29.248Z,75.12
2022-11-24T16:59:55.715Z,75.19
2022-11-24T17:02:22.373Z,74.83
2022-11-24T17:04:52.147Z,74.96
2022-11-24T17:07:20.306Z,74.90
2022-11-24T17:09:47.170Z,74.92
2022-11-24T17:12:13.661Z,74.71
2022-11-24T17:14:40.183Z,74.82
2022-11-24T17:17:06.674Z,74.74
2022-11-24T17:19:33.185Z,74.94
2022-11-24T17:21:59.752Z,74.99
2022-11-24T17:24:26.419Z,74.98
2022-11-24T17:26:53.274Z,74.86
2022-11-24T17:29:19.927Z,74.86
2022-11-24T17:31:46.658Z,74.98
2022-11-24T17:34:13.459Z,74.99
2022-11-24T17:36:41.460Z,74.91
2022-11-24T17:39:08.118Z,75.12
2022-11-24T17:41:34.725Z,75.19
2022-11-24T17:44:01.517Z,75.01
2022-11-24T17:46:30.285Z,75.16
2022-11-24T17:48:56.891Z,75.27
2022-11-24T17:51:25.416Z,75.33
2022-11-24T17:53:54.026Z,75.56
2022-11-24T17:56:25.624Z,75.29
2022-11-24T17:58:54.327Z,75.22
2022-11-24T18:01:21.733Z,75.37
2022-11-24T18:03:53.216Z,75.21
2022-11-24T18:06:20.875Z,75.49
2022-11-24T18:08:47.663Z,75.50
2022-11-24T18:11:17.982Z,75.50
2022-11-24T18:16:33.033Z,75.52
2022-11-24T18:19:08.886Z,75.47
2022-11-24T18:21:40.618Z,75.33
2022-11-24T18:24:08.899Z,75.23
2022-11-24T18:26:35.857Z,75.50
2022-11-24T18:29:02.496Z,75.45
2022-11-24T18:31:31.035Z,75.27
2022-11-24T18:33:57.629Z,75.34
2022-11-24T18:36:30.075Z,75.37
2022-11-24T18:39:04.748Z,75.38
2022-11-24T18:41:31.816Z,75.31
2022-11-24T18:44:02.130Z,75.47
2022-11-24T18:46:28.752Z,75.42
2022-11-24T18:48:55.248Z,75.63
2022-11-24T18:51:23.059Z,75.53
2022-11-24T18:53:54.421Z,75.55
2022-11-24T18:56:21.038Z,75.47
2022-11-24T18:58:47.691Z,75.61
2022-11-24T19:01:16.595Z,75.32
2022-11-24T19:03:51.620Z,75.24
2022-11-24T19:06:24.612Z,75.28
2022-11-24T19:08:53.720Z,75.29
2022-11-24T19:11:22.950Z,75.39
2022-11-24T19:13:49.814Z,75.40
2022-11-24T19:16:18.467Z,75.09
2022-11-24T19:18:50.251Z,75.28
2022-11-24T19:21:20.169Z,75.29
2022-11-24T19:23:46.867Z,75.21
2022-11-24T19:26:15.027Z,75.06
2022-11-24T19:28:41.748Z,75.31
2022-11-24T19:31:12.075Z,75.26
2022-11-24T19:33:39.426Z,75.18
2022-11-24T19:36:09.025Z,75.26
2022-11-24T19:38:35.649Z,75.49
2022-11-24T19:41:07.339Z,75.52
2022-11-24T19:43:34.768Z,75.34
2022-11-24T19:46:05.717Z,75.74
2022-11-24T19:48:43.330Z,75.34
2022-11-24T19:51:18.069Z,75.51
2022-11-24T19:53:45.620Z,75.74
2022-11-24T19:56:14.939Z,75.70
2022-11-24T19:58:41.963Z,76.00
2022-11-24T20:01:11.325Z,75.86
2022-11-24T20:03:39.147Z,75.76
2022-11-24T20:06:07.090Z,75.80
2022-11-24T20:08:36.051Z,76.07
2022-11-24T20:11:11.671Z,75.91
2022-11-24T20:13:40.046Z,76.31
2022-11-24T20:16:10.045Z,75.96
2022-11-24T20:18:43.949Z,75.96
2022-11-24T20:21:18.710Z,75.90
2022-11-24T20:23:47.251Z,76.15
2022-11-24T20:26:23.080Z,76.04
2022-11-24T20:28:51.330Z,75.80
2022-11-24T20:31:21.081Z,76.05
2022-11-24T20:33:48.133Z,75.89
2022-11-24T20:36:19.134Z,75.63
2022-11-24T20:38:47.120Z,75.95
2022-11-24T20:41:16.663Z,75.62
2022-11-24T20:43:44.461Z,75.61
2022-11-24T20:46:16.330Z,75.44
2022-11-24T20:48:43.241Z,75.37
2022-11-24T20:51:15.558Z,75.36
2022-11-24T20:53:42.112Z,75.44
2022-11-24T20:56:12.919Z,75.41
2022-11-24T20:58:40.255Z,75.24
2022-11-24T21:01:14.906Z,75.45
2022-11-24T21:03:43.444Z,75.38
2022-11-24T21:06:12.400Z,75.27
2022-11-24T21:08:41.439Z,75.34
2022-11-24T21:11:11.122Z,75.42
2022-11-24T21:13:39.267Z,75.34
2022-11-24T21:16:15.203Z,75.02
2022-11-24T21:18:43.507Z,75.16
2022-11-24T21:21:10.453Z,75.28
2022-11-24T21:23:37.129Z,75.37
2022-11-24T21:26:07.458Z,75.11
2022-11-24T21:28:36.850Z,74.96
2022-11-24T21:31:15.262Z,75.11
2022-11-24T21:33:50.087Z,75.16
2022-11-24T21:36:24.642Z,75.01
2022-11-24T21:38:55.839Z,75.06
2022-11-24T21:41:24.724Z,75.19
2022-11-24T21:43:52.755Z,75.13
2022-11-24T21:46:19.333Z,75.01
2022-11-24T21:48:46.009Z,75.15
2022-11-24T21:51:17.907Z,75.15
2022-11-24T21:53:49.951Z,75.30
2022-11-24T21:56:19.040Z,75.21
2022-11-24T21:58:50.639Z,75.21
2022-11-24T22:01:19.239Z,75.31
2022-11-24T22:03:46.047Z,75.27
2022-11-24T22:06:13.225Z,75.18
2022-11-24T22:08:39.844Z,75.20
2022-11-24T22:11:17.955Z,75.34
2022-11-24T22:13:44.881Z,75.19
2022-11-24T22:16:20.295Z,75.18
2022-11-24T22:18:47.433Z,75.09
2022-11-24T22:21:16.393Z,75.05
2022-11-24T22:23:43.861Z,75.10
2022-11-24T22:26:14.508Z,75.28
2022-11-24T22:28:42.444Z,75.16
2022-11-24T22:31:12.228Z,75.18
2022-11-24T22:33:39.289Z,75.01
2022-11-24T22:36:06.707Z,75.36
2022-11-24T22:38:34.661Z,75.24
2022-11-24T22:41:02.913Z,75.04
2022-11-24T22:43:31.738Z,75.28
2022-11-24T22:46:02.966Z,74.98
2022-11-24T22:48:29.568Z,75.30
2022-11-24T22:51:01.753Z,74.97
2022-11-24T22:53:28.270Z,75.19
2022-11-24T22:55:54.762Z,75.25
2022-11-24T22:58:21.278Z,75.24
2022-11-24T23:00:47.742Z,75.24
2022-11-24T23:03:14.311Z,75.48
2022-11-24T23:05:40.804Z,75.29
2022-11-24T23:08:07.285Z,75.08
2022-11-24T23:10:33.743Z,75.57
2022-11-24T23:13:00.293Z,75.53
2022-11-24T23:15:26.851Z,75.31
2022-11-24T23:17:53.369Z,75.34
2022-11-24T23:20:19.955Z,74.88
2022-11-24T23:22:46.507Z,75.03
2022-11-24T23:25:13.070Z,75.14
2022-11-24T23:27:39.596Z,75.11
2022-11-24T23:30:06.787Z,75.37
2022-11-24T23:32:33.252Z,75.04
2022-11-24T23:34:59.740Z,75.26
2022-11-24T23:37:39.348Z,75.17
2022-11-24T23:40:12.901Z,75.03
2022-11-24T23:42:39.426Z,75.15
2022-11-24T23:45:07.950Z,75.38
2022-11-24T23:47:34.403Z,75.23
2022-11-24T23:50:01.041Z,75.05
2022-11-24T23:52:30.415Z,75.42
2022-11-24T23:54:56.940Z,75.17
2022-11-24T23:57:23.522Z,75.20
2022-11-24T23:59:49.992Z,75.40
